sensor_id;sensor_type;location;lat;lon;timestamp;pressure;altitude;pressure_sealevel;temperature;humidity
61039;BME280;46919;45.816;3.104;2023-02-18T00:01:58;99280.34;;;9.66;100.00
61039;BME280;46919;45.816;3.104;2023-02-18T00:04:23;99282.38;;;9.64;100.00
61039;BME280;46919;45.816;3.104;2023-02-18T00:06:49;99282.75;;;9.60;100.00
61039;BME280;46919;45.816;3.104;2023-02-18T00:09:14;99278.19;;;9.61;100.00
61039;BME280;46919;45.816;3.104;2023-02-18T00:11:40;99277.34;;;9.60;100.00
61039;BME280;46919;45.816;3.104;2023-02-18T00:14:12;99280.69;;;9.63;100.00
61039;BME280;46919;45.816;3.104;2023-02-18T00:16:38;99279.22;;;9.60;100.00
61039;BME280;46919;45.816;3.104;2023-02-18T00:19:06;99271.97;;;9.60;100.00
61039;BME280;46919;45.816;3.104;2023-02-18T00:21:33;99270.94;;;9.61;100.00
61039;BME280;46919;45.816;3.104;2023-02-18T00:23:59;99272.78;;;9.61;100.00
61039;BME280;46919;45.816;3.104;2023-02-18T00:26:25;99261.81;;;9.63;100.00
61039;BME280;46919;45.816;3.104;2023-02-18T00:28:50;99252.69;;;9.64;100.00
61039;BME280;46919;45.816;3.104;2023-02-18T00:31:20;99247.47;;;9.62;100.00
61039;BME280;46919;45.816;3.104;2023-02-18T00:33:45;99251.19;;;9.61;100.00
61039;BME280;46919;45.816;3.104;2023-02-18T00:36:13;99246.47;;;9.63;100.00
61039;BME280;46919;45.816;3.104;2023-02-18T00:38:46;99252.50;;;9.65;100.00
61039;BME280;46919;45.816;3.104;2023-02-18T00:41:12;99245.25;;;9.66;100.00
61039;BME280;46919;45.816;3.104;2023-02-18T00:43:37;99243.84;;;9.70;100.00
61039;BME280;46919;45.816;3.104;2023-02-18T00:46:03;99243.03;;;9.69;100.00
61039;BME280;46919;45.816;3.104;2023-02-18T00:48:28;99236.41;;;9.72;100.00
61039;BME280;46919;45.816;3.104;2023-02-18T00:50:54;99234.56;;;9.72;100.00
61039;BME280;46919;45.816;3.104;2023-02-18T00:53:19;99241.16;;;9.70;100.00
61039;BME280;46919;45.816;3.104;2023-02-18T00:55:46;99233.06;;;9.70;100.00
61039;BME280;46919;45.816;3.104;2023-02-18T00:58:14;99237.44;;;9.71;100.00
61039;BME280;46919;45.816;3.104;2023-02-18T01:00:40;99231.00;;;9.72;100.00
61039;BME280;46919;45.816;3.104;2023-02-18T01:03:06;99227.66;;;9.70;100.00
61039;BME280;46919;45.816;3.104;2023-02-18T01:05:34;99225.97;;;9.69;100.00
61039;BME280;46919;45.816;3.104;2023-02-18T01:08:00;99224.50;;;9.66;100.00
61039;BME280;46919;45.816;3.104;2023-02-18T01:10:26;99214.72;;;9.65;100.00
61039;BME280;46919;45.816;3.104;2023-02-18T01:12:51;99221.31;;;9.63;100.00
61039;BME280;46919;45.816;3.104;2023-02-18T01:15:17;99219.66;;;9.61;100.00
61039;BME280;46919;45.816;3.104;2023-02-18T01:17:43;99223.75;;;9.57;100.00
61039;BME280;46919;45.816;3.104;2023-02-18T01:20:10;99223.38;;;9.60;100.00
61039;BME280;46919;45.816;3.104;2023-02-18T01:22:36;99225.44;;;9.58;100.00
61039;BME280;46919;45.816;3.104;2023-02-18T01:25:02;99222.28;;;9.55;100.00
61039;BME280;46919;45.816;3.104;2023-02-18T01:27:28;99213.31;;;9.54;100.00
61039;BME280;46919;45.816;3.104;2023-02-18T01:29:54;99214.19;;;9.55;100.00
61039;BME280;46919;45.816;3.104;2023-02-18T01:32:19;99212.31;;;9.55;100.00
61039;BME280;46919;45.816;3.104;2023-02-18T01:34:45;99213.31;;;9.54;100.00
61039;BME280;46919;45.816;3.104;2023-02-18T01:37:11;99210.81;;;9.53;100.00
61039;BME280;46919;45.816;3.104;2023-02-18T01:39:37;99209.16;;;9.52;100.00
61039;BME280;46919;45.816;3.104;2023-02-18T01:42:02;99208.97;;;9.53;100.00
61039;BME280;46919;45.816;3.104;2023-02-18T01:44:28;99209.97;;;9.52;100.00
61039;BME280;46919;45.816;3.104;2023-02-18T01:46:54;99206.63;;;9.50;100.00
61039;BME280;46919;45.816;3.104;2023-02-18T01:49:25;99214.06;;;9.48;100.00
61039;BME280;46919;45.816;3.104;2023-02-18T01:51:57;99203.63;;;9.45;100.00
61039;BME280;46919;45.816;3.104;2023-02-18T01:54:36;99209.38;;;9.42;100.00
61039;BME280;46919;45.816;3.104;2023-02-18T01:57:08;99203.34;;;9.40;100.00
61039;BME280;46919;45.816;3.104;2023-02-18T01:59:41;99207.09;;;9.39;100.00
61039;BME280;46919;45.816;3.104;2023-02-18T02:02:12;99205.41;;;9.38;100.00
61039;BME280;46919;45.816;3.104;2023-02-18T02:04:38;99201.03;;;9.37;100.00
61039;BME280;46919;45.816;3.104;2023-02-18T02:07:04;99202.72;;;9.38;100.00
61039;BME280;46919;45.816;3.104;2023-02-18T02:09:31;99194.88;;;9.43;100.00
61039;BME280;46919;45.816;3.104;2023-02-18T02:12:54;99196.94;;;9.41;100.00
61039;BME280;46919;45.816;3.104;2023-02-18T02:15:21;99191.91;;;9.38;100.00
61039;BME280;46919;45.816;3.104;2023-02-18T02:27:09;99181.03;;;9.31;100.00
61039;BME280;46919;45.816;3.104;2023-02-18T02:34:48;99178.59;;;9.36;100.00
61039;BME280;46919;45.816;3.104;2023-02-18T02:40:52;99182.50;;;9.34;100.00
61039;BME280;46919;45.816;3.104;2023-02-18T02:43:27;99176.84;;;9.29;100.00
61039;BME280;46919;45.816;3.104;2023-02-18T02:46:14;99172.25;;;9.29;100.00
61039;BME280;46919;45.816;3.104;2023-02-18T02:48:57;99171.53;;;9.35;100.00
61039;BME280;46919;45.816;3.104;2023-02-18T02:54:13;99174.03;;;9.37;100.00
61039;BME280;46919;45.816;3.104;2023-02-18T02:56:39;99165.31;;;9.35;100.00
61039;BME280;46919;45.816;3.104;2023-02-18T02:59:09;99171.16;;;9.38;100.00
61039;BME280;46919;45.816;3.104;2023-02-18T03:01:40;99168.00;;;9.35;100.00
61039;BME280;46919;45.816;3.104;2023-02-18T03:12:06;99169.00;;;9.34;100.00
61039;BME280;46919;45.816;3.104;2023-02-18T03:17:30;99169.09;;;9.25;100.00
61039;BME280;46919;45.816;3.104;2023-02-18T03:20:06;99163.06;;;9.23;100.00
61039;BME280;46919;45.816;3.104;2023-02-18T03:22:38;99164.72;;;9.24;100.00
61039;BME280;46919;45.816;3.104;2023-02-18T03:25:04;99160.00;;;9.27;100.00
61039;BME280;46919;45.816;3.104;2023-02-18T03:27:32;99153.56;;;9.28;100.00
61039;BME280;46919;45.816;3.104;2023-02-18T03:30:06;99152.91;;;9.25;100.00
61039;BME280;46919;45.816;3.104;2023-02-18T03:32:36;99164.72;;;9.24;100.00
61039;BME280;46919;45.816;3.104;2023-02-18T03:35:08;99159.16;;;9.26;100.00
61039;BME280;46919;45.816;3.104;2023-02-18T03:37:38;99151.91;;;9.27;100.00
61039;BME280;46919;45.816;3.104;2023-02-18T03:40:06;99150.22;;;9.25;100.00
61039;BME280;46919;45.816;3.104;2023-02-18T03:42:33;99151.91;;;9.27;100.00
61039;BME280;46919;45.816;3.104;2023-02-18T03:44:58;99148.53;;;9.24;100.00
61039;BME280;46919;45.816;3.104;2023-02-18T03:47:24;99147.53;;;9.25;100.00
61039;BME280;46919;45.816;3.104;2023-02-18T03:49:50;99136.09;;;9.23;100.00
61039;BME280;46919;45.816;3.104;2023-02-18T03:52:15;99145.19;;;9.22;100.00
61039;BME280;46919;45.816;3.104;2023-02-18T03:54:41;99149.75;;;9.22;100.00
61039;BME280;46919;45.816;3.104;2023-02-18T03:57:07;99147.25;;;9.20;100.00
61039;BME280;46919;45.816;3.104;2023-02-18T03:59:32;99154.34;;;9.21;100.00
61039;BME280;46919;45.816;3.104;2023-02-18T04:01:58;99145.56;;;9.19;100.00
61039;BME280;46919;45.816;3.104;2023-02-18T04:04:23;99146.59;;;9.18;100.00
61039;BME280;46919;45.816;3.104;2023-02-18T04:06:49;99136.00;;;9.17;100.00
61039;BME280;46919;45.816;3.104;2023-02-18T04:09:14;99145.94;;;9.16;100.00
61039;BME280;46919;45.816;3.104;2023-02-18T04:11:40;99137.19;;;9.14;100.00
61039;BME280;46919;45.816;3.104;2023-02-18T04:14:06;99139.91;;;9.14;100.00
61039;BME280;46919;45.816;3.104;2023-02-18T04:16:32;99134.69;;;9.13;100.00
61039;BME280;46919;45.816;3.104;2023-02-18T04:18:58;99132.81;;;9.13;100.00
61039;BME280;46919;45.816;3.104;2023-02-18T04:21:24;99136.56;;;9.12;100.00
61039;BME280;46919;45.816;3.104;2023-02-18T04:23:49;99126.13;;;9.09;100.00
61039;BME280;46919;45.816;3.104;2023-02-18T04:26:15;99131.72;;;9.07;100.00
61039;BME280;46919;45.816;3.104;2023-02-18T04:28:40;99131.91;;;9.06;100.00
61039;BME280;46919;45.816;3.104;2023-02-18T04:31:06;99133.56;;;9.07;100.00
61039;BME280;46919;45.816;3.104;2023-02-18T04:33:31;99136.25;;;9.07;100.00
61039;BME280;46919;45.816;3.104;2023-02-18T04:35:56;99132.91;;;9.05;100.00
61039;BME280;46919;45.816;3.104;2023-02-18T04:38:22;99137.28;;;9.06;100.00
61039;BME280;46919;45.816;3.104;2023-02-18T04:40:47;99140.81;;;9.06;100.00
61039;BME280;46919;45.816;3.104;2023-02-18T04:43:13;99140.34;;;9.03;100.00
61039;BME280;46919;45.816;3.104;2023-02-18T04:45:39;99134.69;;;8.98;100.00
61039;BME280;46919;45.816;3.104;2023-02-18T04:48:04;99142.94;;;8.96;100.00
61039;BME280;46919;45.816;3.104;2023-02-18T04:50:30;99141.09;;;8.97;100.00
61039;BME280;46919;45.816;3.104;2023-02-18T04:52:55;99148.16;;;8.98;100.00
61039;BME280;46919;45.816;3.104;2023-02-18T04:55:21;99144.06;;;9.02;100.00
61039;BME280;46919;45.816;3.104;2023-02-18T04:57:46;99143.69;;;9.05;100.00
61039;BME280;46919;45.816;3.104;2023-02-18T05:00:17;99137.47;;;9.04;100.00
61039;BME280;46919;45.816;3.104;2023-02-18T05:02:43;99136.63;;;9.04;100.00
61039;BME280;46919;45.816;3.104;2023-02-18T05:05:09;99135.59;;;9.05;100.00
61039;BME280;46919;45.816;3.104;2023-02-18T05:07:34;99132.91;;;9.05;100.00
61039;BME280;46919;45.816;3.104;2023-02-18T05:10:00;99128.75;;;9.02;100.00
61039;BME280;46919;45.816;3.104;2023-02-18T05:12:25;99135.97;;;9.02;100.00
61039;BME280;46919;45.816;3.104;2023-02-18T05:14:51;99118.13;;;9.01;100.00
61039;BME280;46919;45.816;3.104;2023-02-18T05:17:16;99127.06;;;9.01;100.00
61039;BME280;46919;45.816;3.104;2023-02-18T05:19:42;99131.63;;;9.01;100.00
61039;BME280;46919;45.816;3.104;2023-02-18T05:22:07;99126.03;;;9.02;100.00
61039;BME280;46919;45.816;3.104;2023-02-18T05:24:33;99126.03;;;9.02;100.00
61039;BME280;46919;45.816;3.104;2023-02-18T05:26:58;99124.16;;;9.03;100.00
61039;BME280;46919;45.816;3.104;2023-02-18T05:29:23;99117.09;;;9.02;100.00
61039;BME280;46919;45.816;3.104;2023-02-18T05:31:49;99117.47;;;8.99;100.00
61039;BME280;46919;45.816;3.104;2023-02-18T05:34:14;99117.81;;;8.96;100.00
61039;BME280;46919;45.816;3.104;2023-02-18T05:36:40;99123.59;;;8.93;100.00
61039;BME280;46919;45.816;3.104;2023-02-18T05:39:05;99116.34;;;8.93;100.00
61039;BME280;46919;45.816;3.104;2023-02-18T05:41:31;99107.22;;;8.94;100.00
61039;BME280;46919;45.816;3.104;2023-02-18T05:43:56;99108.72;;;8.97;100.00
61039;BME280;46919;45.816;3.104;2023-02-18T05:46:40;99111.06;;;9.00;100.00
61039;BME280;46919;45.816;3.104;2023-02-18T05:49:05;99105.84;;;8.98;100.00
61039;BME280;46919;45.816;3.104;2023-02-18T05:51:31;99112.81;;;8.93;100.00
61039;BME280;46919;45.816;3.104;2023-02-18T05:53:56;99115.03;;;8.89;100.00
61039;BME280;46919;45.816;3.104;2023-02-18T05:56:22;99119.59;;;8.88;100.00
61039;BME280;46919;45.816;3.104;2023-02-18T05:58:47;99113.16;;;8.89;100.00
61039;BME280;46919;45.816;3.104;2023-02-18T06:01:13;99110.66;;;8.88;100.00
61039;BME280;46919;45.816;3.104;2023-02-18T06:03:38;99118.56;;;8.89;100.00
61039;BME280;46919;45.816;3.104;2023-02-18T06:06:04;99122.13;;;8.90;100.00
61039;BME280;46919;45.816;3.104;2023-02-18T06:08:29;99122.13;;;8.90;100.00
61039;BME280;46919;45.816;3.104;2023-02-18T06:10:55;99121.94;;;8.92;100.00
61039;BME280;46919;45.816;3.104;2023-02-18T06:13:20;99124.44;;;8.93;100.00
61039;BME280;46919;45.816;3.104;2023-02-18T06:15:49;99124.63;;;8.92;100.00
61039;BME280;46919;45.816;3.104;2023-02-18T06:18:16;99123.41;;;8.94;100.00
61039;BME280;46919;45.816;3.104;2023-02-18T06:20:41;99123.41;;;8.94;100.00
61039;BME280;46919;45.816;3.104;2023-02-18T06:23:06;99121.56;;;8.95;100.00
61039;BME280;46919;45.816;3.104;2023-02-18T06:25:32;99125.91;;;8.96;100.00
61039;BME280;46919;45.816;3.104;2023-02-18T06:27:57;99129.66;;;8.95;100.00
61039;BME280;46919;45.816;3.104;2023-02-18T06:30:23;99127.78;;;8.95;100.00
61039;BME280;46919;45.816;3.104;2023-02-18T06:32:48;99134.00;;;8.96;100.00
61039;BME280;46919;45.816;3.104;2023-02-18T06:35:13;99136.69;;;8.96;100.00
61039;BME280;46919;45.816;3.104;2023-02-18T06:37:39;99136.69;;;8.96;100.00
61039;BME280;46919;45.816;3.104;2023-02-18T06:40:05;99135.69;;;8.97;100.00
61039;BME280;46919;45.816;3.104;2023-02-18T06:42:31;99129.09;;;8.99;100.00
61039;BME280;46919;45.816;3.104;2023-02-18T06:44:56;99134.31;;;9.01;100.00
61039;BME280;46919;45.816;3.104;2023-02-18T06:47:22;99134.50;;;8.99;100.00
61039;BME280;46919;45.816;3.104;2023-02-18T06:49:47;99139.03;;;8.99;100.00
61039;BME280;46919;45.816;3.104;2023-02-18T06:52:12;99136.53;;;8.97;100.00
61039;BME280;46919;45.816;3.104;2023-02-18T06:54:38;99134.88;;;8.96;100.00
61039;BME280;46919;45.816;3.104;2023-02-18T06:57:03;99139.41;;;8.96;100.00
61039;BME280;46919;45.816;3.104;2023-02-18T06:59:29;99139.41;;;8.96;100.00
61039;BME280;46919;45.816;3.104;2023-02-18T07:01:54;99136.53;;;8.97;100.00
61039;BME280;46919;45.816;3.104;2023-02-18T07:04:19;99141.72;;;8.99;100.00
61039;BME280;46919;45.816;3.104;2023-02-18T07:06:45;99135.16;;;9.01;100.00
61039;BME280;46919;45.816;3.104;2023-02-18T07:09:10;99135.78;;;9.03;100.00
61039;BME280;46919;45.816;3.104;2023-02-18T07:11:36;99131.22;;;9.04;100.00
61039;BME280;46919;45.816;3.104;2023-02-18T07:14:01;99129.56;;;9.03;100.00
61039;BME280;46919;45.816;3.104;2023-02-18T07:16:27;99139.13;;;9.05;100.00
61039;BME280;46919;45.816;3.104;2023-02-18T07:18:52;99139.13;;;9.05;100.00
61039;BME280;46919;45.816;3.104;2023-02-18T07:21:17;99141.47;;;9.09;100.00
61039;BME280;46919;45.816;3.104;2023-02-18T07:23:43;99138.56;;;9.10;100.00
61039;BME280;46919;45.816;3.104;2023-02-18T07:26:13;99136.75;;;9.11;100.00
61039;BME280;46919;45.816;3.104;2023-02-18T07:28:39;99139.44;;;9.11;100.00
61039;BME280;46919;45.816;3.104;2023-02-18T07:31:05;99142.59;;;9.14;100.00
61039;BME280;46919;45.816;3.104;2023-02-18T07:33:31;99143.41;;;9.15;100.00
61039;BME280;46919;45.816;3.104;2023-02-18T07:35:59;99141.59;;;9.15;100.00
61039;BME280;46919;45.816;3.104;2023-02-18T07:38:26;99146.31;;;9.13;100.00
61039;BME280;46919;45.816;3.104;2023-02-18T07:40:52;99145.28;;;9.14;100.00
61039;BME280;46919;45.816;3.104;2023-02-18T07:43:17;99148.63;;;9.16;100.00
61039;BME280;46919;45.816;3.104;2023-02-18T07:45:43;99145.56;;;9.19;100.00
61039;BME280;46919;45.816;3.104;2023-02-18T07:48:09;99146.88;;;9.23;100.00
61039;BME280;46919;45.816;3.104;2023-02-18T07:50:35;99148.16;;;9.28;100.00
61039;BME280;46919;45.816;3.104;2023-02-18T07:53:03;99156.19;;;9.36;100.00
61039;BME280;46919;45.816;3.104;2023-02-18T07:55:30;99153.41;;;9.44;100.00
61039;BME280;46919;45.816;3.104;2023-02-18T07:58:23;99151.44;;;9.53;100.00
61039;BME280;46919;45.816;3.104;2023-02-18T08:00:48;99157.69;;;9.53;100.00
61039;BME280;46919;45.816;3.104;2023-02-18T08:03:18;99159.91;;;9.65;100.00
61039;BME280;46919;45.816;3.104;2023-02-18T08:05:47;99158.28;;;9.70;100.00
61039;BME280;46919;45.816;3.104;2023-02-18T08:08:13;99156.53;;;9.77;100.00
61039;BME280;46919;45.816;3.104;2023-02-18T08:10:39;99151.13;;;9.77;100.00
61039;BME280;46919;45.816;3.104;2023-02-18T08:13:05;99159.31;;;9.84;100.00
61039;BME280;46919;45.816;3.104;2023-02-18T08:15:30;99156.03;;;9.89;100.00
61039;BME280;46919;45.816;3.104;2023-02-18T08:17:56;99154.47;;;9.94;100.00
61039;BME280;46919;45.816;3.104;2023-02-18T08:20:21;99155.38;;;10.02;100.00
61039;BME280;46919;45.816;3.104;2023-02-18T08:22:47;99157.13;;;10.09;100.00
61039;BME280;46919;45.816;3.104;2023-02-18T08:25:12;99152.59;;;10.16;100.00
61039;BME280;46919;45.816;3.104;2023-02-18T08:27:37;99153.09;;;10.20;100.00
61039;BME280;46919;45.816;3.104;2023-02-18T08:30:03;99156.81;;;10.19;100.00
61039;BME280;46919;45.816;3.104;2023-02-18T08:32:29;99154.09;;;10.19;100.00
61039;BME280;46919;45.816;3.104;2023-02-18T08:34:54;99157.72;;;10.26;100.00
61039;BME280;46919;45.816;3.104;2023-02-18T08:37:20;99149.97;;;10.38;100.00
61039;BME280;46919;45.816;3.104;2023-02-18T08:39:45;99143.84;;;10.51;100.00
61039;BME280;46919;45.816;3.104;2023-02-18T08:42:11;99152.72;;;10.66;100.00
61039;BME280;46919;45.816;3.104;2023-02-18T08:44:36;99156.19;;;10.82;100.00
61039;BME280;46919;45.816;3.104;2023-02-18T08:47:01;99152.22;;;11.06;100.00
61039;BME280;46919;45.816;3.104;2023-02-18T08:49:27;99156.25;;;11.17;100.00
61039;BME280;46919;45.816;3.104;2023-02-18T08:51:52;99159.03;;;11.30;100.00
61039;BME280;46919;45.816;3.104;2023-02-18T08:54:18;99151.56;;;11.32;100.00
61039;BME280;46919;45.816;3.104;2023-02-18T08:56:43;99158.66;;;11.33;100.00
61039;BME280;46919;45.816;3.104;2023-02-18T08:59:09;99155.38;;;11.45;100.00
61039;BME280;46919;45.816;3.104;2023-02-18T09:01:34;99160.00;;;11.51;100.00
61039;BME280;46919;45.816;3.104;2023-02-18T09:04:00;99158.81;;;11.60;100.00
61039;BME280;46919;45.816;3.104;2023-02-18T09:06:25;99161.16;;;11.70;100.00
61039;BME280;46919;45.816;3.104;2023-02-18T09:08:51;99155.94;;;11.68;100.00
61039;BME280;46919;45.816;3.104;2023-02-18T09:11:17;99159.66;;;11.67;100.00
61039;BME280;46919;45.816;3.104;2023-02-18T09:13:44;99154.31;;;11.74;100.00
61039;BME280;46919;45.816;3.104;2023-02-18T09:16:16;99155.16;;;11.88;100.00
61039;BME280;46919;45.816;3.104;2023-02-18T09:18:45;99162.31;;;11.95;100.00
61039;BME280;46919;45.816;3.104;2023-02-18T09:21:13;99167.34;;;12.05;100.00
61039;BME280;46919;45.816;3.104;2023-02-18T09:23:40;99169.91;;;12.13;100.00
61039;BME280;46919;45.816;3.104;2023-02-18T09:26:08;99171.16;;;12.24;100.00
61039;BME280;46919;45.816;3.104;2023-02-18T09:28:35;99171.63;;;12.28;100.00
61039;BME280;46919;45.816;3.104;2023-02-18T09:31:10;99167.44;;;12.32;100.00
61039;BME280;46919;45.816;3.104;2023-02-18T09:33:38;99177.47;;;12.38;100.00
61039;BME280;46919;45.816;3.104;2023-02-18T09:36:05;99169.56;;;12.43;100.00
61039;BME280;46919;45.816;3.104;2023-02-18T09:38:31;99170.19;;;12.45;100.00
61039;BME280;46919;45.816;3.104;2023-02-18T09:40:57;99177.28;;;12.46;100.00
61039;BME280;46919;45.816;3.104;2023-02-18T09:43:29;99168.31;;;12.53;100.00
61039;BME280;46919;45.816;3.104;2023-02-18T09:45:57;99167.91;;;12.49;100.00
61039;BME280;46919;45.816;3.104;2023-02-18T09:48:34;99170.22;;;12.59;100.00
61039;BME280;46919;45.816;3.104;2023-02-18T09:51:00;99167.09;;;12.62;100.00
61039;BME280;46919;45.816;3.104;2023-02-18T09:53:26;99176.25;;;12.61;100.00
61039;BME280;46919;45.816;3.104;2023-02-18T09:55:54;99168.78;;;12.63;100.00
61039;BME280;46919;45.816;3.104;2023-02-18T09:58:24;99167.09;;;12.55;100.00
61039;BME280;46919;45.816;3.104;2023-02-18T10:00:56;99164.56;;;12.47;100.00
61039;BME280;46919;45.816;3.104;2023-02-18T10:03:25;99161.63;;;12.42;99.87
61039;BME280;46919;45.816;3.104;2023-02-18T10:05:55;99162.06;;;12.59;98.30
61039;BME280;46919;45.816;3.104;2023-02-18T10:08:25;99155.84;;;12.92;96.17
61039;BME280;46919;45.816;3.104;2023-02-18T10:10:51;99156.25;;;12.95;95.28
61039;BME280;46919;45.816;3.104;2023-02-18T10:13:23;99156.47;;;12.94;94.95
61039;BME280;46919;45.816;3.104;2023-02-18T10:15:50;99148.75;;;12.91;94.91
61039;BME280;46919;45.816;3.104;2023-02-18T10:18:25;99158.13;;;13.01;93.85
61039;BME280;46919;45.816;3.104;2023-02-18T10:21:02;99152.25;;;13.18;92.01
61039;BME280;46919;45.816;3.104;2023-02-18T10:23:31;99151.66;;;13.16;91.61
61039;BME280;46919;45.816;3.104;2023-02-18T10:25:57;99156.25;;;13.02;91.78
61039;BME280;46919;45.816;3.104;2023-02-18T10:28:24;99150.22;;;13.13;90.89
61039;BME280;46919;45.816;3.104;2023-02-18T10:31:04;99135.75;;;13.19;90.01
61039;BME280;46919;45.816;3.104;2023-02-18T10:33:52;99146.63;;;13.26;90.07
61039;BME280;46919;45.816;3.104;2023-02-18T10:36:27;99140.56;;;13.24;89.47
61039;BME280;46919;45.816;3.104;2023-02-18T10:44:50;99142.66;;;13.29;88.14
61039;BME280;46919;45.816;3.104;2023-02-18T10:50:24;99144.53;;;13.48;86.19
61039;BME280;46919;45.816;3.104;2023-02-18T10:52:54;99138.81;;;13.70;85.29
61039;BME280;46919;45.816;3.104;2023-02-18T10:55:36;99147.09;;;13.88;84.09
61039;BME280;46919;45.816;3.104;2023-02-18T10:58:02;99146.28;;;13.88;84.34
61039;BME280;46919;45.816;3.104;2023-02-18T11:00:34;99140.91;;;14.20;82.24
61039;BME280;46919;45.816;3.104;2023-02-18T11:03:19;99130.63;;;14.60;79.85
61039;BME280;46919;45.816;3.104;2023-02-18T11:05:47;99132.59;;;14.78;79.57
61039;BME280;46919;45.816;3.104;2023-02-18T11:08:19;99134.75;;;14.70;79.68
61039;BME280;46919;45.816;3.104;2023-02-18T11:10:47;99132.63;;;14.72;79.81
61039;BME280;46919;45.816;3.104;2023-02-18T11:13:16;99132.59;;;14.78;79.20
61039;BME280;46919;45.816;3.104;2023-02-18T11:16:00;99140.53;;;14.80;78.79
61039;BME280;46919;45.816;3.104;2023-02-18T11:18:34;99126.75;;;14.75;78.26
61039;BME280;46919;45.816;3.104;2023-02-18T11:21:01;99122.03;;;14.57;76.51
61039;BME280;46919;45.816;3.104;2023-02-18T11:23:27;99124.88;;;14.75;77.43
61039;BME280;46919;45.816;3.104;2023-02-18T11:28:24;99114.75;;;15.45;73.79
61039;BME280;46919;45.816;3.104;2023-02-18T11:30:56;99107.81;;;15.67;71.69
61039;BME280;46919;45.816;3.104;2023-02-18T11:33:30;99109.09;;;15.46;72.44
61039;BME280;46919;45.816;3.104;2023-02-18T11:35:58;99108.50;;;15.44;72.44
61039;BME280;46919;45.816;3.104;2023-02-18T11:38:34;99092.91;;;15.51;72.33
61039;BME280;46919;45.816;3.104;2023-02-18T11:41:07;99084.81;;;15.63;69.69
61039;BME280;46919;45.816;3.104;2023-02-18T11:43:34;99076.84;;;15.62;69.53
61039;BME280;46919;45.816;3.104;2023-02-18T11:46:19;99071.41;;;15.62;68.26
61039;BME280;46919;45.816;3.104;2023-02-18T11:48:45;99073.00;;;15.69;68.55
61039;BME280;46919;45.816;3.104;2023-02-18T11:54:02;99057.44;;;15.21;69.61
61039;BME280;46919;45.816;3.104;2023-02-18T11:56:32;99056.72;;;15.26;69.98
61039;BME280;46919;45.816;3.104;2023-02-18T11:58:59;99050.28;;;15.57;69.03
61039;BME280;46919;45.816;3.104;2023-02-18T12:03:58;99042.81;;;16.01;67.89
61039;BME280;46919;45.816;3.104;2023-02-18T12:09:36;99028.72;;;16.04;66.67
61039;BME280;46919;45.816;3.104;2023-02-18T12:12:06;99021.66;;;16.27;66.38
61039;BME280;46919;45.816;3.104;2023-02-18T12:14:35;99024.03;;;16.23;67.11
61039;BME280;46919;45.816;3.104;2023-02-18T12:20:35;99000.94;;;16.73;62.79
61039;BME280;46919;45.816;3.104;2023-02-18T12:23:21;99019.34;;;17.13;68.28
61039;BME280;46919;45.816;3.104;2023-02-18T12:26:18;99014.50;;;17.44;64.98
61039;BME280;46919;45.816;3.104;2023-02-18T12:43:29;99012.22;;;16.77;63.64
61039;BME280;46919;45.816;3.104;2023-02-18T12:48:48;98989.31;;;17.01;62.41
61039;BME280;46919;45.816;3.104;2023-02-18T12:57:25;98963.84;;;18.45;58.95
61039;BME280;46919;45.816;3.104;2023-02-18T13:00:15;98971.09;;;18.90;61.11
61039;BME280;46919;45.816;3.104;2023-02-18T13:05:58;98962.94;;;19.40;57.05
61039;BME280;46919;45.816;3.104;2023-02-18T13:14:21;98944.03;;;19.87;55.22
61039;BME280;46919;45.816;3.104;2023-02-18T13:16:51;98955.56;;;19.89;54.83
61039;BME280;46919;45.816;3.104;2023-02-18T13:22:09;98942.19;;;19.98;52.86
61039;BME280;46919;45.816;3.104;2023-02-18T13:24:39;98938.91;;;20.01;52.51
61039;BME280;46919;45.816;3.104;2023-02-18T13:27:51;98933.84;;;19.83;52.59
61039;BME280;46919;45.816;3.104;2023-02-18T13:30:40;98935.22;;;19.63;52.63
61039;BME280;46919;45.816;3.104;2023-02-18T13:40:51;98925.03;;;18.87;52.75
61039;BME280;46919;45.816;3.104;2023-02-18T13:48:34;98910.84;;;18.51;51.54
61039;BME280;46919;45.816;3.104;2023-02-18T13:51:03;98908.00;;;18.46;52.07
61039;BME280;46919;45.816;3.104;2023-02-18T13:53:37;98917.63;;;18.49;51.64
61039;BME280;46919;45.816;3.104;2023-02-18T13:58:47;98903.69;;;18.50;51.40
61039;BME280;46919;45.816;3.104;2023-02-18T14:01:20;98896.78;;;18.47;51.54
61039;BME280;46919;45.816;3.104;2023-02-18T14:03:52;98901.63;;;18.57;51.34
61039;BME280;46919;45.816;3.104;2023-02-18T14:08:44;98893.09;;;18.37;51.43
61039;BME280;46919;45.816;3.104;2023-02-18T14:17:28;98888.94;;;17.83;53.06
61039;BME280;46919;45.816;3.104;2023-02-18T14:22:31;98880.19;;;17.81;52.86
61039;BME280;46919;45.816;3.104;2023-02-18T14:27:28;98873.41;;;18.01;52.63
61039;BME280;46919;45.816;3.104;2023-02-18T14:29:54;98875.06;;;18.02;52.70
61039;BME280;46919;45.816;3.104;2023-02-18T14:32:26;98874.03;;;18.08;52.34
61039;BME280;46919;45.816;3.104;2023-02-18T14:40:57;98867.59;;;17.97;52.10
61039;BME280;46919;45.816;3.104;2023-02-18T14:51:28;98873.91;;;18.15;52.06
61039;BME280;46919;45.816;3.104;2023-02-18T14:53:55;98879.50;;;17.74;53.01
61039;BME280;46919;45.816;3.104;2023-02-18T14:56:21;98869.25;;;17.52;53.33
61039;BME280;46919;45.816;3.104;2023-02-18T14:58:50;98876.00;;;17.62;53.19
61039;BME280;46919;45.816;3.104;2023-02-18T15:03:42;98874.19;;;17.22;54.10
61039;BME280;46919;45.816;3.104;2023-02-18T15:06:39;98872.84;;;16.83;55.08
61039;BME280;46919;45.816;3.104;2023-02-18T15:09:18;98874.75;;;16.95;54.74
61039;BME280;46919;45.816;3.104;2023-02-18T15:12:05;98870.25;;;17.17;54.69
61039;BME280;46919;45.816;3.104;2023-02-18T15:14:39;98872.31;;;17.39;54.53
61039;BME280;46919;45.816;3.104;2023-02-18T15:17:12;98869.47;;;17.63;53.68
61039;BME280;46919;45.816;3.104;2023-02-18T15:19:41;98866.03;;;17.55;53.72
61039;BME280;46919;45.816;3.104;2023-02-18T15:22:19;98868.53;;;17.57;54.13
61039;BME280;46919;45.816;3.104;2023-02-18T15:24:45;98870.81;;;17.31;54.50